Time;durP1;ratioP1;P1;durP2;ratioP2;P2;SDS_P1;SDS_P2;PMS_P1;PMS_P2;Temp;Humidity;BMP_temperature;BMP_pressure;BME280_temperature;BME280_humidity;BME280_pressure;Samples;Min_cycle;Max_cycle;Signal;HPM_P1;HPM_P2
2021/08/14 00:00:10;;;;;;;7.38;4.20;;;;;;;19.42;68.78;100788.13;5072267;28;20040;-76
2021/08/14 00:02:36;;;;;;;7.72;3.67;;;;;;;19.31;69.46;100788.59;5072079;28;20444;-78
2021/08/14 00:05:03;;;;;;;8.57;4.18;;;;;;;19.51;68.11;100791.56;5074600;28;20048;-77
2021/08/14 00:07:29;;;;;;;7.10;4.18;;;;;;;19.48;67.16;100790.06;5070484;28;20094;-77
2021/08/14 00:09:57;;;;;;;6.50;3.85;;;;;;;19.36;67.53;100799.75;5075466;28;20045;-77
2021/08/14 00:12:23;;;;;;;7.88;4.18;;;;;;;19.11;68.67;100798.34;5066794;28;20480;-78
2021/08/14 00:14:50;;;;;;;5.88;3.85;;;;;;;19.05;68.16;100797.19;5073033;28;20097;-78
2021/08/14 00:17:16;;;;;;;7.55;4.15;;;;;;;19.29;66.83;100793.34;5071664;28;20131;-77
2021/08/14 00:19:43;;;;;;;7.32;3.40;;;;;;;19.02;67.62;100802.16;5067600;28;20043;-76
2021/08/14 00:22:09;;;;;;;6.13;3.22;;;;;;;18.91;67.85;100796.13;5073513;28;20369;-77
2021/08/14 00:24:36;;;;;;;8.15;4.05;;;;;;;19.08;66.33;100807.72;5073309;28;20052;-77
2021/08/14 00:27:04;;;;;;;5.95;3.92;;;;;;;19.02;66.62;100800.28;5070981;28;20056;-78
2021/08/14 00:29:30;;;;;;;7.10;3.47;;;;;;;18.71;67.70;100803.16;5067657;28;20041;-76
2021/08/14 00:31:57;;;;;;;9.15;3.88;;;;;;;18.69;67.37;100802.47;5073649;28;20048;-78
2021/08/14 00:34:23;;;;;;;5.60;3.70;;;;;;;18.49;68.29;100804.81;5074621;28;20036;-78
2021/08/14 00:36:50;;;;;;;7.18;3.38;;;;;;;18.21;69.39;100809.94;5066977;28;20045;-78
2021/08/14 00:39:16;;;;;;;9.10;3.85;;;;;;;18.33;68.75;100811.22;5069705;28;20040;-76
2021/08/14 00:41:42;;;;;;;6.53;3.45;;;;;;;17.99;70.13;100808.03;5066228;28;20399;-77
2021/08/14 00:44:10;;;;;;;6.07;3.47;;;;;;;18.09;69.55;100804.06;5072682;28;20478;-77
2021/08/14 00:46:38;;;;;;;6.45;3.72;;;;;;;17.85;70.19;100808.81;5062803;28;20399;-78
2021/08/14 00:49:04;;;;;;;5.18;3.22;;;;;;;17.56;71.81;100798.56;5068349;28;20499;-78
2021/08/14 00:51:31;;;;;;;7.28;3.40;;;;;;;17.73;70.77;100802.91;5067730;28;20040;-77
2021/08/14 00:53:57;;;;;;;6.68;3.80;;;;;;;17.74;70.58;100804.59;5072877;28;20048;-76
2021/08/14 00:56:26;;;;;;;6.15;3.67;;;;;;;17.57;71.74;100803.81;5073082;28;20044;-76
2021/08/14 00:58:53;;;;;;;8.90;3.72;;;;;;;17.54;71.43;100809.59;5072566;28;20098;-78
2021/08/14 01:01:21;;;;;;;6.68;3.40;;;;;;;17.42;71.92;100808.28;5073880;28;20052;-77
2021/08/14 01:03:48;;;;;;;10.90;3.42;;;;;;;17.23;73.04;100801.38;5066133;28;20224;-77
2021/08/14 01:06:16;;;;;;;6.03;3.13;;;;;;;17.21;72.06;100800.72;5073448;28;20044;-77
2021/08/14 01:08:42;;;;;;;5.60;2.95;;;;;;;17.07;72.42;100813.13;5074149;28;20098;-75
2021/08/14 01:11:10;;;;;;;7.53;3.25;;;;;;;17.01;72.42;100812.97;5074000;28;20048;-77
2021/08/14 01:13:37;;;;;;;6.30;3.55;;;;;;;16.82;73.22;100815.03;5072494;28;20056;-77
2021/08/14 01:16:05;;;;;;;6.45;3.33;;;;;;;16.62;74.59;100814.50;5074408;28;20055;-78
2021/08/14 01:18:33;;;;;;;4.75;2.85;;;;;;;16.56;74.79;100819.72;5064984;28;20055;-76
2021/08/14 01:21:00;;;;;;;5.00;2.85;;;;;;;16.69;73.19;100814.66;5073702;28;20074;-77
2021/08/14 01:23:27;;;;;;;5.18;3.22;;;;;;;16.72;72.73;100813.50;5072689;28;20433;-76
2021/08/14 01:26:07;;;;;;;5.25;3.08;;;;;;;16.78;71.80;100813.66;5066262;28;20063;-76
2021/08/14 01:28:37;;;;;;;7.20;3.03;;;;;;;16.83;71.26;100818.59;5074746;28;20064;-75
2021/08/14 01:31:06;;;;;;;9.55;4.20;;;;;;;16.73;72.84;100815.19;5065016;28;20129;-76
2021/08/14 01:33:36;;;;;;;6.07;3.17;;;;;;;16.57;72.81;100814.13;5073735;28;20047;-77
2021/08/14 01:36:03;;;;;;;6.90;3.03;;;;;;;16.44;74.04;100819.22;5071971;28;20272;-75
2021/08/14 01:38:29;;;;;;;5.03;3.05;;;;;;;16.22;75.23;100817.16;5071754;28;20098;-74
2021/08/14 01:40:56;;;;;;;5.53;2.70;;;;;;;16.11;76.56;100820.19;5073352;28;20074;-78
2021/08/14 01:43:23;;;;;;;5.72;2.85;;;;;;;16.37;73.17;100819.06;5071617;28;20543;-76
2021/08/14 01:45:51;;;;;;;5.13;3.03;;;;;;;16.22;75.09;100817.16;5074702;28;20461;-77
2021/08/14 01:48:18;;;;;;;5.50;2.80;;;;;;;16.19;74.16;100818.34;5075381;28;20109;-77
2021/08/14 01:53:21;;;;;;;5.57;2.90;;;;;;;15.97;76.39;100825.22;5048412;28;20045;-61
2021/08/14 01:55:47;;;;;;;5.72;2.65;;;;;;;15.90;76.30;100818.78;5050749;28;20044;-64
2021/08/14 01:58:14;;;;;;;11.27;3.35;;;;;;;15.75;77.33;100817.72;5048962;28;20099;-63
2021/08/14 02:00:40;;;;;;;6.18;3.20;;;;;;;15.68;78.59;100820.22;5049224;28;20127;-64
2021/08/14 02:03:08;;;;;;;6.82;2.83;;;;;;;15.60;79.40;100816.63;5049440;28;20060;-65
2021/08/14 02:05:34;;;;;;;6.88;3.05;;;;;;;15.55;80.18;100818.97;5051324;28;20445;-64
2021/08/14 02:08:00;;;;;;;6.53;3.45;;;;;;;15.55;80.33;100813.56;5050388;28;20419;-64
2021/08/14 02:10:27;;;;;;;7.70;3.55;;;;;;;15.49;80.66;100815.88;5050977;28;20056;-63
2021/08/14 02:12:53;;;;;;;5.10;3.40;;;;;;;15.45;80.86;100814.50;5050602;28;20049;-65
2021/08/14 02:15:19;;;;;;;5.15;2.97;;;;;;;15.44;80.48;100807.41;5049933;28;20131;-64
2021/08/14 02:17:46;;;;;;;5.78;2.83;;;;;;;15.46;80.75;100816.22;5049324;28;20044;-63
2021/08/14 02:20:14;;;;;;;5.50;2.88;;;;;;;15.41;80.93;100813.16;5049835;28;20049;-65
2021/08/14 02:22:40;;;;;;;3.67;2.30;;;;;;;15.36;80.76;100826.28;5050916;28;20045;-63
2021/08/14 02:25:08;;;;;;;5.22;2.85;;;;;;;15.30;81.31;100821.53;5048729;28;20057;-65
2021/08/14 02:27:34;;;;;;;8.65;3.47;;;;;;;15.24;81.31;100819.47;5047959;28;20045;-63
2021/08/14 02:30:00;;;;;;;4.32;2.13;;;;;;;15.22;81.36;100818.78;5050653;28;20094;-64
2021/08/14 02:32:27;;;;;;;7.00;2.85;;;;;;;15.16;81.34;100831.09;5048977;28;20053;-63
2021/08/14 02:34:53;;;;;;;4.60;2.63;;;;;;;15.08;81.42;100822.09;5050336;28;20102;-64
2021/08/14 02:37:21;;;;;;;5.18;2.78;;;;;;;15.04;80.76;100823.41;5050032;28;20129;-63
2021/08/14 02:39:47;;;;;;;6.65;2.85;;;;;;;14.95;81.11;100830.63;5047712;28;20341;-64
2021/08/14 02:42:13;;;;;;;4.88;3.00;;;;;;;14.92;81.48;100822.84;5050279;28;20048;-64
2021/08/14 02:44:40;;;;;;;4.72;2.90;;;;;;;14.86;81.42;100821.59;5049000;28;20045;-61
2021/08/14 02:47:06;;;;;;;6.05;2.63;;;;;;;14.84;81.49;100820.06;5040704;28;20464;-64
2021/08/14 02:49:32;;;;;;;5.60;3.00;;;;;;;14.90;79.62;100814.84;5050620;28;20037;-64
2021/08/14 02:51:59;;;;;;;4.97;2.75;;;;;;;14.82;81.27;100817.53;5048834;28;20461;-63
2021/08/14 02:54:26;;;;;;;6.10;3.38;;;;;;;14.78;81.32;100823.38;5049236;28;20121;-64
2021/08/14 02:56:53;;;;;;;6.90;3.28;;;;;;;14.76;81.60;100831.66;5049474;28;20107;-63
2021/08/14 02:59:19;;;;;;;5.47;3.28;;;;;;;14.73;82.16;100829.25;5049296;28;20049;-62
2021/08/14 03:01:45;;;;;;;4.20;2.55;;;;;;;14.77;82.19;100833.34;5049309;28;20107;-64
2021/08/14 03:04:12;;;;;;;5.50;2.90;;;;;;;14.77;82.43;100821.69;5050393;28;20118;-63
2021/08/14 03:06:38;;;;;;;6.50;3.42;;;;;;;14.77;82.42;100825.22;5048745;28;20052;-64
2021/08/14 03:09:05;;;;;;;7.32;3.15;;;;;;;14.82;81.68;100825.63;5049406;28;20045;-63
2021/08/14 03:11:33;;;;;;;5.47;2.75;;;;;;;14.87;81.73;100825.16;5048845;28;20052;-64
2021/08/14 03:13:59;;;;;;;4.90;2.70;;;;;;;14.92;81.60;100817.44;5048602;28;20118;-65
2021/08/14 03:16:25;;;;;;;9.35;2.90;;;;;;;14.94;81.63;100826.22;5047448;28;20049;-63
2021/08/14 03:18:52;;;;;;;8.00;3.13;;;;;;;14.99;81.63;100831.13;5050048;28;20080;-63
2021/08/14 03:21:18;;;;;;;6.80;2.75;;;;;;;15.01;80.88;100827.25;5047925;28;20052;-64
2021/08/14 03:23:44;;;;;;;5.70;2.63;;;;;;;15.01;80.08;100821.00;5050142;28;20406;-63
2021/08/14 03:26:11;;;;;;;5.75;2.70;;;;;;;15.16;77.78;100820.28;5048126;28;20075;-65
2021/08/14 03:28:38;;;;;;;6.95;2.53;;;;;;;15.16;78.22;100830.25;5050072;28;20102;-64
2021/08/14 03:31:05;;;;;;;6.70;2.92;;;;;;;14.97;79.39;100831.31;5050204;28;20119;-64
2021/08/14 03:33:31;;;;;;;4.75;2.55;;;;;;;14.83;80.17;100831.88;5047185;28;20095;-64
2021/08/14 03:35:57;;;;;;;5.32;2.72;;;;;;;14.72;81.12;100826.72;5049305;28;20045;-65
2021/08/14 03:38:24;;;;;;;4.88;2.83;;;;;;;14.60;81.54;100834.22;5051493;28;20560;-64
2021/08/14 03:40:50;;;;;;;4.90;2.75;;;;;;;14.53;82.13;100834.00;5046281;28;20072;-63
2021/08/14 03:43:18;;;;;;;5.25;2.35;;;;;;;14.50;82.43;100836.16;5052346;28;20049;-62
2021/08/14 03:45:46;;;;;;;5.28;3.08;;;;;;;14.49;82.38;100832.59;5052087;28;20056;-65
2021/08/14 03:48:12;;;;;;;6.07;2.35;;;;;;;14.49;82.38;100832.59;5052927;28;20046;-64
2021/08/14 03:50:39;;;;;;;8.27;2.30;;;;;;;14.46;82.42;100830.22;5052541;28;20266;-63
2021/08/14 03:53:05;;;;;;;6.68;2.95;;;;;;;14.47;81.44;100833.78;5053154;28;20094;-65
2021/08/14 03:55:31;;;;;;;6.07;3.33;;;;;;;14.40;81.57;100828.09;5053484;28;20208;-63
2021/08/14 03:57:58;;;;;;;5.05;2.22;;;;;;;14.29;82.45;100839.97;5051969;28;20178;-61
2021/08/14 04:00:25;;;;;;;4.53;2.65;;;;;;;14.27;82.49;100838.44;5053582;28;20041;-64
2021/08/14 04:02:52;;;;;;;7.35;2.70;;;;;;;14.21;82.83;100839.91;5054006;28;20045;-65
2021/08/14 04:05:19;;;;;;;5.00;2.83;;;;;;;14.15;83.51;100835.13;5052503;28;20075;-62
2021/08/14 04:07:45;;;;;;;8.20;3.10;;;;;;;14.12;83.84;100837.28;5053536;28;20095;-62
2021/08/14 04:10:12;;;;;;;5.30;2.47;;;;;;;14.01;84.74;100832.94;5054475;28;20045;-63
2021/08/14 04:12:38;;;;;;;6.50;2.78;;;;;;;13.99;84.77;100833.09;5052757;28;20045;-64
2021/08/14 04:15:05;;;;;;;5.82;2.70;;;;;;;13.98;84.34;100839.50;5053163;28;20495;-65
2021/08/14 04:17:31;;;;;;;7.63;2.72;;;;;;;13.97;84.37;100834.22;5051209;28;20045;-62
2021/08/14 04:19:59;;;;;;;7.53;2.78;;;;;;;13.98;84.03;100834.09;5060587;22;20049;-62
2021/08/14 04:22:26;;;;;;;4.88;2.55;;;;;;;13.97;84.37;100834.22;5052246;28;20041;-62
2021/08/14 04:24:52;;;;;;;6.65;2.60;;;;;;;13.94;85.06;100842.63;5053125;28;20052;-63
2021/08/14 04:27:19;;;;;;;4.47;2.28;;;;;;;13.91;85.23;100832.16;5052745;28;20102;-62
2021/08/14 04:29:45;;;;;;;4.70;2.65;;;;;;;13.89;85.45;100839.56;5053468;28;20473;-60
2021/08/14 04:32:11;;;;;;;6.80;3.08;;;;;;;13.84;85.94;100837.28;5051282;28;20049;-62
2021/08/14 04:34:38;;;;;;;5.50;2.72;;;;;;;13.83;85.73;100830.19;5052142;28;20132;-61
2021/08/14 04:37:06;;;;;;;4.72;2.40;;;;;;;13.81;85.89;100829.50;5052728;28;20061;-63
2021/08/14 04:39:32;;;;;;;3.85;2.53;;;;;;;13.78;86.10;100837.91;5049020;28;20045;-65
2021/08/14 04:41:58;;;;;;;4.75;2.45;;;;;;;13.78;86.11;100837.91;5052668;28;20053;-61
2021/08/14 04:44:25;;;;;;;5.95;2.92;;;;;;;13.80;86.00;100835.06;5051627;28;20502;-62
2021/08/14 04:46:51;;;;;;;7.75;3.25;;;;;;;13.84;86.20;100829.19;5052248;28;20045;-62
2021/08/14 04:49:18;;;;;;;7.50;3.22;;;;;;;13.88;85.94;100837.84;5052032;28;20049;-61
2021/08/14 04:51:44;;;;;;;4.70;3.30;;;;;;;13.92;86.40;100837.38;5052585;28;20095;-63
2021/08/14 04:54:12;;;;;;;5.47;2.90;;;;;;;13.99;86.12;100845.75;5052535;28;20052;-60
2021/08/14 04:56:38;;;;;;;6.32;3.25;;;;;;;14.11;85.86;100838.28;5051408;28;20486;-63
2021/08/14 04:59:04;;;;;;;8.50;3.22;;;;;;;14.22;85.59;100827.25;5051405;28;20056;-61
2021/08/14 05:01:31;;;;;;;8.70;3.53;;;;;;;14.30;84.94;100832.72;5051789;28;20052;-62
2021/08/14 05:03:57;;;;;;;6.20;2.92;;;;;;;14.40;84.48;100833.50;5052468;28;20045;-62
2021/08/14 05:06:23;;;;;;;6.43;3.08;;;;;;;14.48;84.09;100836.31;5051898;28;20045;-59
2021/08/14 05:08:49;;;;;;;7.95;3.13;;;;;;;14.54;83.77;100832.97;5052734;28;20415;-63
2021/08/14 05:11:17;;;;;;;7.00;3.78;;;;;;;14.60;83.79;100828.81;5050841;28;20048;-60
2021/08/14 05:13:43;;;;;;;10.35;3.50;;;;;;;14.64;83.62;100827.50;5052348;28;20056;-63
2021/08/14 05:16:10;;;;;;;5.70;3.70;;;;;;;14.74;83.41;100828.25;5050433;28;20110;-61
2021/08/14 05:18:36;;;;;;;6.30;2.90;;;;;;;14.88;82.88;100830.38;5052193;28;20041;-60
2021/08/14 05:21:02;;;;;;;9.95;3.75;;;;;;;15.04;81.81;100826.97;5050313;28;20486;-64
2021/08/14 05:23:29;;;;;;;8.40;3.60;;;;;;;15.19;81.16;100829.94;5051540;28;20049;-60
2021/08/14 05:25:55;;;;;;;5.60;3.10;;;;;;;15.37;80.43;100821.72;5052262;28;20399;-63
2021/08/14 05:28:23;;;;;;;7.15;2.92;;;;;;;15.53;80.25;100827.25;5052050;28;20130;-63
2021/08/14 05:30:49;;;;;;;5.68;3.30;;;;;;;15.73;79.47;100828.69;5051701;28;20411;-62
2021/08/14 05:33:16;;;;;;;7.05;3.65;;;;;;;15.92;77.45;100824.88;5051853;28;20540;-63
2021/08/14 05:35:42;;;;;;;7.03;3.22;;;;;;;16.13;77.27;100827.13;5049980;28;20045;-63
2021/08/14 05:38:08;;;;;;;10.20;3.92;;;;;;;16.36;76.09;100824.63;5046691;28;20053;-63
2021/08/14 05:40:35;;;;;;;8.15;3.58;;;;;;;16.56;74.33;100820.56;5051288;28;20041;-62
2021/08/14 05:43:03;;;;;;;7.00;3.42;;;;;;;16.76;73.48;100822.97;5051201;28;20171;-61
2021/08/14 05:45:31;;;;;;;4.53;3.08;;;;;;;16.94;72.99;100829.94;5051761;28;20055;-62
2021/08/14 05:47:57;;;;;;;7.18;3.00;;;;;;;17.11;71.41;100829.88;5050021;28;20491;-60
2021/08/14 05:50:24;;;;;;;6.93;3.65;;;;;;;17.21;71.52;100842.25;5050862;28;20411;-62
2021/08/14 05:52:50;;;;;;;9.93;3.65;;;;;;;17.37;70.31;100838.63;5050616;28;20449;-59
2021/08/14 05:55:17;;;;;;;6.00;2.58;;;;;;;17.48;70.06;100846.41;5039455;28;20126;-63
2021/08/14 05:57:43;;;;;;;7.68;3.58;;;;;;;17.59;67.23;100838.91;5043624;28;20049;-62
2021/08/14 06:00:11;;;;;;;6.13;3.15;;;;;;;17.80;67.17;100847.34;5044883;28;20041;-65
2021/08/14 06:02:38;;;;;;;6.30;2.78;;;;;;;17.90;66.77;100850.72;5040142;28;20045;-61
2021/08/14 06:05:06;;;;;;;6.00;2.47;;;;;;;18.11;66.20;100850.06;5032692;28;20051;-60
2021/08/14 06:07:32;;;;;;;9.40;3.67;;;;;;;18.33;65.81;100862.84;5048038;28;20099;-61
2021/08/14 06:09:59;;;;;;;6.10;2.85;;;;;;;18.57;64.33;100844.66;5043363;28;20090;-63
2021/08/14 06:12:25;;;;;;;6.80;2.67;;;;;;;18.86;62.63;100847.53;5046781;28;20057;-62
2021/08/14 06:14:51;;;;;;;4.65;2.35;;;;;;;19.13;61.87;100846.09;5047379;28;20045;-61
2021/08/14 06:17:18;;;;;;;9.02;2.60;;;;;;;19.50;61.27;100847.91;5050617;28;20538;-63
2021/08/14 06:19:45;;;;;;;6.47;2.65;;;;;;;19.76;59.05;100835.69;5049669;28;20076;-61
2021/08/14 06:22:12;;;;;;;9.63;2.63;;;;;;;19.97;59.13;100835.78;5046298;28;20261;-61
2021/08/14 06:24:38;;;;;;;5.63;2.10;;;;;;;20.15;57.40;100844.38;5050639;28;20057;-60
2021/08/14 06:27:05;;;;;;;7.30;2.40;;;;;;;20.40;57.60;100831.22;5050051;28;20107;-60
2021/08/14 06:29:32;;;;;;;8.70;2.13;;;;;;;20.41;57.12;100834.81;5032296;28;20045;-61
2021/08/14 06:31:58;;;;;;;7.20;2.28;;;;;;;20.35;55.97;100836.41;5039571;28;20384;-60
2021/08/14 06:34:24;;;;;;;4.88;1.88;;;;;;;20.29;55.93;100842.66;5048412;28;20410;-62
2021/08/14 06:36:52;;;;;;;7.15;2.30;;;;;;;20.28;56.57;100837.38;5050023;28;20102;-60
2021/08/14 06:39:18;;;;;;;5.88;1.73;;;;;;;20.16;57.00;100842.50;5049592;28;20103;-63
2021/08/14 06:41:45;;;;;;;5.53;1.83;;;;;;;20.00;57.49;100846.28;5049158;28;20719;-60
2021/08/14 06:44:11;;;;;;;8.10;2.10;;;;;;;20.00;57.43;100838.09;5036441;28;20415;-58
2021/08/14 06:46:37;;;;;;;6.82;2.08;;;;;;;20.00;59.59;100839.97;5031721;28;20107;-59
2021/08/14 06:49:04;;;;;;;8.10;2.17;;;;;;;20.02;57.94;100841.50;5034571;28;20049;-61
2021/08/14 06:51:30;;;;;;;6.38;2.00;;;;;;;19.94;58.30;100838.88;5043147;28;20458;-60
2021/08/14 06:53:59;;;;;;;10.80;2.85;;;;;;;19.74;59.18;100848.66;5051507;28;20399;-59
2021/08/14 06:56:26;;;;;;;7.50;1.73;;;;;;;19.77;61.82;100846.44;5051685;28;20049;-60
2021/08/14 06:58:52;;;;;;;7.43;2.10;;;;;;;19.76;61.12;100841.16;5051809;28;20419;-60
2021/08/14 07:01:18;;;;;;;3.90;1.95;;;;;;;19.99;63.81;100841.88;5051555;28;20045;-60
2021/08/14 07:03:45;;;;;;;3.92;1.92;;;;;;;20.33;59.04;100833.03;5051671;28;20052;-59
2021/08/14 07:06:18;;;;;;;11.20;2.47;;;;;;;20.63;58.16;100844.72;5051490;28;20061;-61
2021/08/14 07:08:45;;;;;;;4.28;1.83;;;;;;;20.97;56.31;100829.47;5051848;28;20110;-60
2021/08/14 07:11:12;;;;;;;6.45;2.20;;;;;;;21.05;55.76;100832.03;5052705;28;20498;-61
2021/08/14 07:13:39;;;;;;;4.75;1.70;;;;;;;21.30;55.11;100838.75;5047769;28;20045;-62
2021/08/14 07:16:06;;;;;;;7.45;2.30;;;;;;;21.39;54.63;100835.88;5046960;28;20094;-61
2021/08/14 07:18:32;;;;;;;5.82;2.05;;;;;;;21.37;54.78;100841.56;5053823;28;20127;-60
2021/08/14 07:20:59;;;;;;;7.80;2.20;;;;;;;21.11;54.23;100839.44;5052867;28;20120;-61
2021/08/14 07:23:25;;;;;;;9.18;2.10;;;;;;;21.28;56.85;100843.59;5053785;28;20076;-59
2021/08/14 07:25:52;;;;;;;6.28;2.30;;;;;;;21.38;54.08;100834.19;5053773;28;20068;-62
2021/08/14 07:28:21;;;;;;;6.20;2.35;;;;;;;21.23;54.90;100840.59;5053668;28;20045;-60
2021/08/14 07:30:48;;;;;;;5.47;2.00;;;;;;;21.60;52.78;100835.81;5051609;28;20122;-61
2021/08/14 07:33:14;;;;;;;6.55;1.90;;;;;;;21.79;53.75;100832.34;5049375;28;20103;-60
2021/08/14 07:35:40;;;;;;;4.47;1.58;;;;;;;21.92;51.50;100837.03;5053824;28;20106;-62
2021/08/14 07:38:07;;;;;;;9.88;2.80;;;;;;;21.50;51.29;100835.31;5052187;28;20072;-62
2021/08/14 07:40:33;;;;;;;5.70;2.22;;;;;;;21.54;51.92;100836.59;5047558;28;20053;-61
2021/08/14 07:42:59;;;;;;;6.88;1.92;;;;;;;21.70;53.20;100840.91;5059297;28;20061;-62
2021/08/14 07:45:27;;;;;;;6.40;1.92;;;;;;;21.69;52.29;100841.94;5053490;28;20080;-58
2021/08/14 07:47:54;;;;;;;8.27;2.00;;;;;;;21.51;51.39;100839.75;5053239;28;20111;-58
2021/08/14 07:50:22;;;;;;;5.55;2.10;;;;;;;21.95;50.51;100838.50;5053364;28;20107;-61
2021/08/14 07:52:49;;;;;;;4.82;2.03;;;;;;;21.84;52.56;100831.72;5052112;28;20065;-64
2021/08/14 07:55:16;;;;;;;9.60;1.98;;;;;;;22.22;50.36;100834.81;5046337;28;20454;-62
2021/08/14 07:57:43;;;;;;;5.55;2.35;;;;;;;21.98;51.09;100827.16;5053061;28;20044;-58
2021/08/14 08:00:11;;;;;;;5.10;2.22;;;;;;;22.05;51.26;100817.09;5052072;28;20422;-61
2021/08/14 08:02:39;;;;;;;7.15;2.10;;;;;;;22.26;50.54;100818.84;5049989;28;20383;-61
2021/08/14 08:05:07;;;;;;;4.68;2.35;;;;;;;22.10;49.73;100814.59;5046987;28;20103;-63
2021/08/14 08:07:34;;;;;;;5.72;2.17;;;;;;;22.24;49.07;100816.31;5046582;28;20052;-61
2021/08/14 08:10:02;;;;;;;6.80;2.55;;;;;;;22.12;50.79;100812.50;5042836;28;20069;-61
2021/08/14 08:12:28;;;;;;;4.85;2.22;;;;;;;22.21;50.33;100811.28;5043318;28;20138;-63
2021/08/14 08:14:54;;;;;;;9.25;2.72;;;;;;;22.31;51.67;100814.47;5052750;28;20053;-61
2021/08/14 08:17:21;;;;;;;8.40;2.63;;;;;;;22.51;48.83;100805.47;5052180;28;20119;-63
2021/08/14 08:19:48;;;;;;;5.68;2.22;;;;;;;22.59;48.50;100811.53;5052705;28;20099;-61
2021/08/14 08:22:15;;;;;;;7.43;2.47;;;;;;;22.72;49.24;100816.19;5052015;28;20053;-61
2021/08/14 08:24:41;;;;;;;8.45;3.15;;;;;;;22.57;48.73;100804.59;5051468;28;20102;-61
2021/08/14 08:27:07;;;;;;;7.80;2.30;;;;;;;22.51;48.86;100799.97;5038430;28;20045;-58
2021/08/14 08:29:34;;;;;;;9.20;2.50;;;;;;;22.89;47.06;100784.66;5035335;28;20041;-63
2021/08/14 08:32:00;;;;;;;8.13;2.90;;;;;;;22.81;50.05;100795.78;5035247;28;20049;-59
2021/08/14 08:34:26;;;;;;;7.30;2.67;;;;;;;22.63;46.51;100784.63;5039937;28;20045;-60
2021/08/14 08:36:54;;;;;;;5.40;2.30;;;;;;;23.03;47.35;100794.53;5048551;28;20118;-59
2021/08/14 08:39:21;;;;;;;8.23;2.65;;;;;;;22.73;46.20;100783.16;5052062;28;20118;-62
2021/08/14 08:41:47;;;;;;;6.25;2.80;;;;;;;22.15;48.05;100784.78;5051362;28;20077;-62
2021/08/14 08:44:13;;;;;;;5.07;2.30;;;;;;;22.40;48.22;100785.03;5051808;28;20560;-60
2021/08/14 08:46:40;;;;;;;8.45;3.10;;;;;;;22.99;45.52;100776.03;5051701;28;20106;-61
2021/08/14 08:49:08;;;;;;;6.22;1.90;;;;;;;23.09;45.84;100786.50;5051095;28;20136;-62
2021/08/14 08:51:34;;;;;;;6.03;2.00;;;;;;;23.08;45.62;100780.19;5038001;28;20111;-58
2021/08/14 08:54:02;;;;;;;5.20;2.70;;;;;;;23.37;45.76;100770.66;5048416;28;20045;-60
2021/08/14 08:56:30;;;;;;;7.32;2.00;;;;;;;23.57;45.88;100771.44;5050765;28;20045;-59
2021/08/14 08:58:57;;;;;;;3.90;1.85;;;;;;;23.59;45.39;100766.63;5050573;28;20148;-60
2021/08/14 09:01:23;;;;;;;6.57;2.30;;;;;;;23.41;45.55;100763.69;5052882;28;20052;-60
2021/08/14 09:03:50;;;;;;;7.10;2.65;;;;;;;23.21;46.21;100771.97;5051720;28;20053;-60
2021/08/14 09:06:17;;;;;;;8.30;2.40;;;;;;;23.38;44.48;100769.59;5051877;28;20049;-59
2021/08/14 09:09:11;;;;;;;5.43;2.20;;;;;;;23.32;43.70;100762.22;5045096;28;20152;-62
2021/08/14 09:11:48;;;;;;;3.90;2.20;;;;;;;22.94;44.59;100760.22;5043065;28;20056;-59
2021/08/14 09:14:15;;;;;;;6.72;2.35;;;;;;;22.86;42.44;100767.81;5044264;28;20491;-60
2021/08/14 09:16:41;;;;;;;5.28;2.28;;;;;;;22.92;46.01;100765.06;5045834;28;20053;-60
2021/08/14 09:19:08;;;;;;;4.45;2.17;;;;;;;23.05;45.65;100761.47;5043301;28;20123;-61
2021/08/14 09:21:36;;;;;;;4.93;2.08;;;;;;;23.24;45.40;100754.28;5036687;28;20442;-62
2021/08/14 09:24:05;;;;;;;4.20;2.17;;;;;;;23.58;44.55;100764.09;5041632;28;20053;-63
2021/08/14 09:26:56;;;;;;;5.07;2.55;;;;;;;23.70;42.81;100750.56;5040142;28;20069;-61
2021/08/14 09:29:30;;;;;;;5.90;2.20;;;;;;;23.68;40.68;100753.53;5036706;28;20126;-61
2021/08/14 09:31:57;;;;;;;6.82;2.15;;;;;;;23.78;42.10;100751.13;5036074;28;20061;-59
2021/08/14 09:34:25;;;;;;;8.10;2.30;;;;;;;23.90;42.23;100757.59;5043934;28;20051;-60
2021/08/14 09:36:59;;;;;;;6.25;2.28;;;;;;;24.12;42.26;100744.41;5039568;28;20103;-63
2021/08/14 09:39:25;;;;;;;6.63;2.53;;;;;;;24.06;39.86;100748.03;5038525;28;20053;-58
2021/08/14 09:42:02;;;;;;;4.75;2.35;;;;;;;23.80;43.42;100757.25;5036159;28;20470;-59
2021/08/14 09:44:28;;;;;;;9.75;2.72;;;;;;;23.59;41.99;100744.69;5035849;28;20052;-61
2021/08/14 09:46:55;;;;;;;6.15;2.30;;;;;;;23.62;41.79;100754.38;5038749;28;20088;-59
2021/08/14 09:49:21;;;;;;;7.25;2.58;;;;;;;23.51;43.74;100747.66;5041965;28;20098;-59
2021/08/14 09:51:47;;;;;;;5.90;2.33;;;;;;;23.79;41.91;100749.22;5042018;28;20060;-58
2021/08/14 09:54:14;;;;;;;6.53;2.72;;;;;;;23.81;43.91;100745.25;5042511;28;20131;-60
2021/08/14 09:56:40;;;;;;;4.40;2.10;;;;;;;24.04;42.37;100741.09;5034206;28;20049;-61
2021/08/14 09:59:08;;;;;;;6.35;2.50;;;;;;;23.97;43.74;100730.16;5037822;28;20056;-61
2021/08/14 10:01:38;;;;;;;6.13;2.08;;;;;;;24.36;41.87;100730.97;5042839;28;20094;-61
2021/08/14 10:04:05;;;;;;;8.60;2.88;;;;;;;24.64;42.94;100728.66;5041114;28;20132;-59
2021/08/14 10:06:33;;;;;;;6.88;2.90;;;;;;;24.64;40.21;100720.41;5038809;28;20094;-59
2021/08/14 10:09:00;;;;;;;5.72;2.58;;;;;;;24.73;40.07;100730.03;5033183;28;20416;-59
2021/08/14 10:11:26;;;;;;;6.60;3.08;;;;;;;24.61;38.51;100725.50;5034165;28;20041;-59
2021/08/14 10:13:52;;;;;;;11.07;2.50;;;;;;;24.21;39.56;100721.16;5038381;28;20060;-61
2021/08/14 10:16:20;;;;;;;6.60;2.40;;;;;;;24.59;39.07;100708.41;5037919;28;20073;-63
2021/08/14 10:18:47;;;;;;;6.28;2.55;;;;;;;24.73;39.01;100719.03;5036110;28;20049;-62
2021/08/14 10:21:15;;;;;;;6.15;2.30;;;;;;;24.59;38.75;100722.97;5044584;28;20052;-60
2021/08/14 10:23:44;;;;;;;5.30;2.25;;;;;;;25.01;38.05;100713.13;5038721;28;20049;-61
2021/08/14 10:26:14;;;;;;;8.25;2.50;;;;;;;25.01;37.18;100707.63;5039746;28;20048;-60
2021/08/14 10:28:45;;;;;;;4.90;2.05;;;;;;;25.08;38.18;100705.63;5056275;22;20045;-77
2021/08/14 10:31:47;;;;;;;7.85;2.67;;;;;;;25.57;38.24;100708.41;5040437;28;20053;-77
2021/08/14 10:34:30;;;;;;;8.43;2.60;;;;;;;26.11;36.55;100703.88;5043214;28;20048;-76
2021/08/14 10:36:57;;;;;;;5.85;2.65;;;;;;;25.96;35.82;100698.00;5037278;28;20391;-75
2021/08/14 10:39:25;;;;;;;5.43;2.55;;;;;;;25.60;35.63;100691.50;5021166;28;20049;-77
2021/08/14 10:41:53;;;;;;;6.85;2.35;;;;;;;25.86;36.16;100685.66;5023242;28;20071;-77
2021/08/14 10:44:36;;;;;;;6.75;2.65;;;;;;;26.33;36.10;100680.25;5018621;28;20487;-76
2021/08/14 10:47:04;;;;;;;8.82;3.05;;;;;;;26.15;37.14;100675.66;5015829;28;20141;-76
2021/08/14 10:49:46;;;;;;;8.98;2.65;;;;;;;26.67;35.09;100666.78;5022018;28;20042;-76
2021/08/14 10:52:14;;;;;;;7.30;2.63;;;;;;;26.54;33.77;100664.28;5017087;28;20057;-77
2021/08/14 10:55:04;;;;;;;6.18;2.40;;;;;;;26.26;35.27;100668.50;5020263;28;20045;-76
2021/08/14 10:57:53;;;;;;;5.60;2.65;;;;;;;25.71;36.32;100670.66;5018747;28;20107;-77
2021/08/14 11:00:27;;;;;;;5.07;2.25;;;;;;;25.69;36.73;100667.25;5016836;28;20060;-76
2021/08/14 11:03:09;;;;;;;6.72;2.70;;;;;;;25.36;38.42;100666.66;5022943;28;20150;-76
2021/08/14 11:05:37;;;;;;;8.73;2.13;;;;;;;25.79;36.09;100673.88;5018121;28;20045;-75
2021/08/14 11:08:22;;;;;;;9.73;2.80;;;;;;;25.43;37.86;100669.28;5021895;28;20058;-77
2021/08/14 11:10:49;;;;;;;;;;;;;;;25.29;35.89;100667.78;5016080;28;20057;-77
2021/08/14 11:13:43;;;;;;;6.35;2.83;;;;;;;25.45;38.56;100660.81;5021303;28;19932;-75
2021/08/14 11:16:11;;;;;;;6.88;2.53;;;;;;;25.62;36.79;100656.34;5017299;28;20251;-74
2021/08/14 11:18:54;;;;;;;8.65;2.55;;;;;;;25.56;37.68;100643.53;5013950;28;20041;-75
2021/08/14 11:21:44;;;;;;;5.85;2.85;;;;;;;25.55;38.59;100645.44;5016288;28;20447;-74
2021/08/14 11:24:35;;;;;;;6.35;2.25;;;;;;;25.21;39.47;100643.38;5014689;28;20487;-77
2021/08/14 11:27:02;;;;;;;11.38;2.90;;;;;;;25.44;39.63;100642.66;5023230;28;20058;-75
2021/08/14 11:29:30;;;;;;;6.53;2.83;;;;;;;25.33;38.58;100638.78;5015886;28;20515;-76